sensor_id;sensor_type;location;lat;lon;timestamp;pressure;altitude;pressure_sealevel;temperature;humidity
35443;BME280;21561;55.654;37.592;2023-10-08T00:00:26;96062.03;;;5.30;98.12
35443;BME280;21561;55.654;37.592;2023-10-08T00:03:13;96084.25;;;5.31;97.76
35443;BME280;21561;55.654;37.592;2023-10-08T00:05:41;96098.91;;;5.29;96.24
35443;BME280;21561;55.654;37.592;2023-10-08T00:08:08;96077.47;;;5.30;96.54
35443;BME280;21561;55.654;37.592;2023-10-08T00:10:39;96114.41;;;5.27;95.61
35443;BME280;21561;55.654;37.592;2023-10-08T00:13:08;96108.44;;;5.27;95.58
35443;BME280;21561;55.654;37.592;2023-10-08T00:15:36;96062.16;;;5.27;95.81
35443;BME280;21561;55.654;37.592;2023-10-08T00:18:04;96096.50;;;5.26;95.60
35443;BME280;21561;55.654;37.592;2023-10-08T00:20:37;96148.84;;;5.23;95.64
35443;BME280;21561;55.654;37.592;2023-10-08T00:23:24;96070.22;;;5.19;94.99
35443;BME280;21561;55.654;37.592;2023-10-08T00:25:54;96073.53;;;5.21;94.31
35443;BME280;21561;55.654;37.592;2023-10-08T00:28:22;96072.72;;;5.21;94.07
35443;BME280;21561;55.654;37.592;2023-10-08T00:30:49;96065.00;;;5.21;93.50
35443;BME280;21561;55.654;37.592;2023-10-08T00:33:16;96050.41;;;5.21;92.80
35443;BME280;21561;55.654;37.592;2023-10-08T00:35:44;96117.31;;;5.20;92.69
35443;BME280;21561;55.654;37.592;2023-10-08T00:38:12;96043.47;;;5.23;92.40
35443;BME280;21561;55.654;37.592;2023-10-08T00:40:43;96089.91;;;5.19;92.08
35443;BME280;21561;55.654;37.592;2023-10-08T00:43:32;96073.53;;;5.21;92.45
35443;BME280;21561;55.654;37.592;2023-10-08T00:46:06;96078.03;;;5.16;92.63
35443;BME280;21561;55.654;37.592;2023-10-08T00:49:00;96097.84;;;5.14;92.44
35443;BME280;21561;55.654;37.592;2023-10-08T00:51:45;96061.78;;;5.15;92.09
35443;BME280;21561;55.654;37.592;2023-10-08T00:54:26;96095.31;;;5.12;91.03
35443;BME280;21561;55.654;37.592;2023-10-08T00:56:55;96109.06;;;5.11;91.61
35443;BME280;21561;55.654;37.592;2023-10-08T00:59:24;96069.69;;;5.11;91.47
35443;BME280;21561;55.654;37.592;2023-10-08T01:01:52;96073.25;;;5.08;91.37
35443;BME280;21561;55.654;37.592;2023-10-08T01:04:34;96044.22;;;5.06;91.95
35443;BME280;21561;55.654;37.592;2023-10-08T01:07:02;96064.59;;;5.09;91.33
35443;BME280;21561;55.654;37.592;2023-10-08T01:09:39;96067.25;;;5.08;91.59
35443;BME280;21561;55.654;37.592;2023-10-08T01:12:19;96103.38;;;5.05;91.45
35443;BME280;21561;55.654;37.592;2023-10-08T01:15:02;96081.06;;;5.05;90.22
35443;BME280;21561;55.654;37.592;2023-10-08T01:17:50;96069.19;;;5.03;90.49
35443;BME280;21561;55.654;37.592;2023-10-08T01:20:41;96074.50;;;4.98;90.83
35443;BME280;21561;55.654;37.592;2023-10-08T01:23:14;96088.19;;;4.98;91.09
35443;BME280;21561;55.654;37.592;2023-10-08T01:25:43;96082.22;;;4.98;90.63
35443;BME280;21561;55.654;37.592;2023-10-08T01:28:18;96075.56;;;4.94;90.73
35443;BME280;21561;55.654;37.592;2023-10-08T01:30:53;96106.50;;;4.91;90.43
35443;BME280;21561;55.654;37.592;2023-10-08T01:33:27;96079.13;;;4.90;90.63
35443;BME280;21561;55.654;37.592;2023-10-08T01:35:55;96099.81;;;4.87;90.49
35443;BME280;21561;55.654;37.592;2023-10-08T01:38:22;96112.84;;;4.82;90.58
35443;BME280;21561;55.654;37.592;2023-10-08T01:40:52;96063.97;;;4.84;90.03
35443;BME280;21561;55.654;37.592;2023-10-08T01:43:19;96078.88;;;4.75;90.17
35443;BME280;21561;55.654;37.592;2023-10-08T01:45:47;96061.03;;;4.72;90.37
35443;BME280;21561;55.654;37.592;2023-10-08T01:48:19;96107.38;;;4.69;90.11
35443;BME280;21561;55.654;37.592;2023-10-08T01:50:58;96081.63;;;4.71;89.93
35443;BME280;21561;55.654;37.592;2023-10-08T01:53:28;96062.84;;;4.70;89.40
35443;BME280;21561;55.654;37.592;2023-10-08T01:55:55;96053.50;;;4.68;89.33
35443;BME280;21561;55.654;37.592;2023-10-08T01:58:22;96093.75;;;4.67;89.31
35443;BME280;21561;55.654;37.592;2023-10-08T02:00:53;96048.38;;;4.68;89.44
35443;BME280;21561;55.654;37.592;2023-10-08T02:03:25;96056.13;;;4.66;89.77
35443;BME280;21561;55.654;37.592;2023-10-08T02:05:54;96066.66;;;4.60;88.42
35443;BME280;21561;55.654;37.592;2023-10-08T02:08:25;96069.28;;;4.58;89.29
35443;BME280;21561;55.654;37.592;2023-10-08T02:10:58;96143.81;;;4.57;88.82
35443;BME280;21561;55.654;37.592;2023-10-08T02:13:25;96154.34;;;4.51;88.78
35443;BME280;21561;55.654;37.592;2023-10-08T02:15:53;96129.53;;;4.50;88.67
35443;BME280;21561;55.654;37.592;2023-10-08T02:18:20;96061.13;;;4.49;88.81
35443;BME280;21561;55.654;37.592;2023-10-08T02:20:51;96103.97;;;4.47;88.50
35443;BME280;21561;55.654;37.592;2023-10-08T02:23:18;96057.72;;;4.48;88.66
35443;BME280;21561;55.654;37.592;2023-10-08T02:25:45;96049.25;;;4.46;88.78
35443;BME280;21561;55.654;37.592;2023-10-08T02:28:12;96093.72;;;4.47;87.66
35443;BME280;21561;55.654;37.592;2023-10-08T02:30:42;96110.91;;;4.45;87.58
35443;BME280;21561;55.654;37.592;2023-10-08T02:33:09;96065.47;;;4.47;87.99
35443;BME280;21561;55.654;37.592;2023-10-08T02:35:44;96091.16;;;4.47;87.65
35443;BME280;21561;55.654;37.592;2023-10-08T02:38:13;96076.72;;;4.44;86.97
35443;BME280;21561;55.654;37.592;2023-10-08T02:40:43;96105.06;;;4.41;87.13
35443;BME280;21561;55.654;37.592;2023-10-08T02:43:15;96053.56;;;4.46;87.41
35443;BME280;21561;55.654;37.592;2023-10-08T02:45:43;96106.69;;;4.44;87.00
35443;BME280;21561;55.654;37.592;2023-10-08T02:48:14;96094.75;;;4.43;87.27
35443;BME280;21561;55.654;37.592;2023-10-08T02:50:43;96081.38;;;4.34;88.81
35443;BME280;21561;55.654;37.592;2023-10-08T02:53:13;96064.66;;;4.24;90.58
35443;BME280;21561;55.654;37.592;2023-10-08T02:55:46;96109.66;;;4.11;90.90
35443;BME280;21561;55.654;37.592;2023-10-08T02:58:14;96065.50;;;4.03;91.55
35443;BME280;21561;55.654;37.592;2023-10-08T03:00:43;96093.06;;;3.97;93.44
35443;BME280;21561;55.654;37.592;2023-10-08T03:03:10;96088.94;;;3.93;92.28
35443;BME280;21561;55.654;37.592;2023-10-08T03:05:49;96097.53;;;3.92;92.98
35443;BME280;21561;55.654;37.592;2023-10-08T03:08:19;96049.50;;;3.96;92.49
35443;BME280;21561;55.654;37.592;2023-10-08T03:10:48;96055.47;;;3.96;92.14
35443;BME280;21561;55.654;37.592;2023-10-08T03:13:16;96065.59;;;3.99;91.63
35443;BME280;21561;55.654;37.592;2023-10-08T03:15:43;96102.28;;;4.01;90.93
35443;BME280;21561;55.654;37.592;2023-10-08T03:18:24;96052.84;;;3.98;90.88
35443;BME280;21561;55.654;37.592;2023-10-08T03:20:51;96058.88;;;3.97;91.31
35443;BME280;21561;55.654;37.592;2023-10-08T03:23:19;96085.34;;;3.97;91.30
35443;BME280;21561;55.654;37.592;2023-10-08T03:25:51;96058.94;;;3.95;91.78
35443;BME280;21561;55.654;37.592;2023-10-08T03:28:26;96064.06;;;3.95;91.43
35443;BME280;21561;55.654;37.592;2023-10-08T03:30:57;96065.72;;;3.96;92.04
35443;BME280;21561;55.654;37.592;2023-10-08T03:33:42;96057.50;;;3.88;92.89
35443;BME280;21561;55.654;37.592;2023-10-08T03:36:10;96083.34;;;3.82;92.92
35443;BME280;21561;55.654;37.592;2023-10-08T03:39:00;96112.69;;;3.75;93.72
35443;BME280;21561;55.654;37.592;2023-10-08T03:41:41;96070.88;;;3.73;94.59
35443;BME280;21561;55.654;37.592;2023-10-08T03:44:08;96126.63;;;3.68;94.53
35443;BME280;21561;55.654;37.592;2023-10-08T03:46:42;96104.56;;;3.63;94.68
35443;BME280;21561;55.654;37.592;2023-10-08T03:49:10;96122.69;;;3.59;95.21
35443;BME280;21561;55.654;37.592;2023-10-08T03:51:50;96103.22;;;3.53;95.31
35443;BME280;21561;55.654;37.592;2023-10-08T03:54:22;96065.66;;;3.52;95.95
35443;BME280;21561;55.654;37.592;2023-10-08T03:57:02;96075.09;;;3.52;96.28
35443;BME280;21561;55.654;37.592;2023-10-08T03:59:39;96107.00;;;3.43;97.71
35443;BME280;21561;55.654;37.592;2023-10-08T04:02:09;96073.91;;;3.37;99.07
35443;BME280;21561;55.654;37.592;2023-10-08T04:04:51;96052.94;;;3.25;100.00
35443;BME280;21561;55.654;37.592;2023-10-08T04:07:27;96103.56;;;3.19;100.00
35443;BME280;21561;55.654;37.592;2023-10-08T04:10:00;96104.63;;;3.13;100.00
35443;BME280;21561;55.654;37.592;2023-10-08T04:12:37;96066.19;;;3.13;100.00
35443;BME280;21561;55.654;37.592;2023-10-08T04:15:11;96065.41;;;3.11;100.00
35443;BME280;21561;55.654;37.592;2023-10-08T04:17:44;96084.94;;;3.14;100.00
35443;BME280;21561;55.654;37.592;2023-10-08T04:20:13;96072.91;;;3.16;100.00
35443;BME280;21561;55.654;37.592;2023-10-08T04:23:00;96090.69;;;3.20;100.00
35443;BME280;21561;55.654;37.592;2023-10-08T04:25:29;96071.88;;;3.21;100.00
35443;BME280;21561;55.654;37.592;2023-10-08T04:27:58;96126.44;;;3.25;99.47
35443;BME280;21561;55.654;37.592;2023-10-08T04:30:25;96095.50;;;3.30;98.72
35443;BME280;21561;55.654;37.592;2023-10-08T04:33:00;96075.91;;;3.29;98.58
35443;BME280;21561;55.654;37.592;2023-10-08T04:35:34;96098.97;;;3.29;98.08
35443;BME280;21561;55.654;37.592;2023-10-08T04:38:07;96100.53;;;3.33;97.88
35443;BME280;21561;55.654;37.592;2023-10-08T04:40:35;96100.53;;;3.33;96.92
35443;BME280;21561;55.654;37.592;2023-10-08T04:43:15;96089.22;;;3.38;96.09
35443;BME280;21561;55.654;37.592;2023-10-08T04:45:49;96122.38;;;3.43;95.14
35443;BME280;21561;55.654;37.592;2023-10-08T04:48:16;96160.75;;;3.44;94.43
35443;BME280;21561;55.654;37.592;2023-10-08T04:50:48;96070.06;;;3.49;94.06
35443;BME280;21561;55.654;37.592;2023-10-08T04:55:59;96125.50;;;3.51;94.06
35443;BME280;21561;55.654;37.592;2023-10-08T04:58:33;96079.38;;;3.51;93.22
35443;BME280;21561;55.654;37.592;2023-10-08T05:01:04;96123.63;;;3.56;92.24
35443;BME280;21561;55.654;37.592;2023-10-08T05:03:51;96063.00;;;3.55;92.37
35443;BME280;21561;55.654;37.592;2023-10-08T05:06:38;96085.09;;;3.58;92.30
35443;BME280;21561;55.654;37.592;2023-10-08T05:09:08;96093.56;;;3.60;91.95
35443;BME280;21561;55.654;37.592;2023-10-08T05:11:48;96072.13;;;3.62;92.42
35443;BME280;21561;55.654;37.592;2023-10-08T05:14:20;96139.91;;;3.55;92.90
35443;BME280;21561;55.654;37.592;2023-10-08T05:17:08;96161.63;;;3.45;93.24
35443;BME280;21561;55.654;37.592;2023-10-08T05:19:41;96113.00;;;3.42;94.14
35443;BME280;21561;55.654;37.592;2023-10-08T05:22:08;96079.75;;;3.40;95.26
35443;BME280;21561;55.654;37.592;2023-10-08T05:24:49;96074.66;;;3.39;94.94
35443;BME280;21561;55.654;37.592;2023-10-08T05:27:38;96080.03;;;3.33;94.77
35443;BME280;21561;55.654;37.592;2023-10-08T05:30:25;96137.41;;;3.29;94.69
35443;BME280;21561;55.654;37.592;2023-10-08T05:33:08;96124.47;;;3.32;95.47
35443;BME280;21561;55.654;37.592;2023-10-08T05:35:42;96107.31;;;3.34;96.05
35443;BME280;21561;55.654;37.592;2023-10-08T05:38:17;96092.75;;;3.36;94.94
35443;BME280;21561;55.654;37.592;2023-10-08T05:41:05;96112.38;;;3.35;94.12
35443;BME280;21561;55.654;37.592;2023-10-08T05:43:42;96098.50;;;3.41;93.75
35443;BME280;21561;55.654;37.592;2023-10-08T05:46:13;96119.03;;;3.41;92.69
35443;BME280;21561;55.654;37.592;2023-10-08T05:48:56;96098.41;;;3.44;92.45
35443;BME280;21561;55.654;37.592;2023-10-08T05:51:42;96093.97;;;3.49;92.02
35443;BME280;21561;55.654;37.592;2023-10-08T05:54:23;96131.53;;;3.50;91.90
35443;BME280;21561;55.654;37.592;2023-10-08T05:56:54;96127.38;;;3.46;91.48
35443;BME280;21561;55.654;37.592;2023-10-08T05:59:33;96109.34;;;3.49;92.72
35443;BME280;21561;55.654;37.592;2023-10-08T06:02:20;96113.69;;;3.47;92.63
35443;BME280;21561;55.654;37.592;2023-10-08T06:05:03;96124.03;;;3.44;92.18
35443;BME280;21561;55.654;37.592;2023-10-08T06:07:42;96113.91;;;3.41;92.15
35443;BME280;21561;55.654;37.592;2023-10-08T06:10:29;96112.25;;;3.40;92.26
35443;BME280;21561;55.654;37.592;2023-10-08T06:13:06;96126.94;;;3.35;92.36
35443;BME280;21561;55.654;37.592;2023-10-08T06:15:42;96141.53;;;3.33;92.69
35443;BME280;21561;55.654;37.592;2023-10-08T06:18:16;96148.44;;;3.31;92.61
35443;BME280;21561;55.654;37.592;2023-10-08T06:20:48;96138.19;;;3.31;92.51
35443;BME280;21561;55.654;37.592;2023-10-08T06:23:22;96150.22;;;3.29;92.55
35443;BME280;21561;55.654;37.592;2023-10-08T06:25:51;96137.41;;;3.29;92.00
35443;BME280;21561;55.654;37.592;2023-10-08T06:28:26;96127.03;;;3.32;92.00
35443;BME280;21561;55.654;37.592;2023-10-08T06:30:54;96126.16;;;3.33;90.51
35443;BME280;21561;55.654;37.592;2023-10-08T06:33:25;96143.00;;;3.40;91.12
35443;BME280;21561;55.654;37.592;2023-10-08T06:35:57;96127.50;;;3.43;89.83
35443;BME280;21561;55.654;37.592;2023-10-08T06:38:53;96188.16;;;3.42;88.80
35443;BME280;21561;55.654;37.592;2023-10-08T06:41:20;96141.88;;;3.47;88.98
35443;BME280;21561;55.654;37.592;2023-10-08T06:44:06;96123.03;;;3.48;89.18
35443;BME280;21561;55.654;37.592;2023-10-08T06:46:41;96129.69;;;3.54;88.62
35443;BME280;21561;55.654;37.592;2023-10-08T06:49:09;96168.09;;;3.55;88.32
35443;BME280;21561;55.654;37.592;2023-10-08T06:51:42;96116.69;;;3.58;88.58
35443;BME280;21561;55.654;37.592;2023-10-08T06:54:11;96125.16;;;3.60;88.14
35443;BME280;21561;55.654;37.592;2023-10-08T06:56:46;96151.03;;;3.54;87.92
35443;BME280;21561;55.654;37.592;2023-10-08T06:59:19;96158.91;;;3.48;87.83
35443;BME280;21561;55.654;37.592;2023-10-08T07:01:51;96156.50;;;3.45;87.34
35443;BME280;21561;55.654;37.592;2023-10-08T07:04:18;96198.66;;;3.36;88.64
35443;BME280;21561;55.654;37.592;2023-10-08T07:06:50;96176.69;;;3.29;88.96
35443;BME280;21561;55.654;37.592;2023-10-08T07:09:17;96156.13;;;3.31;89.08
35443;BME280;21561;55.654;37.592;2023-10-08T07:11:54;96164.66;;;3.31;88.82
35443;BME280;21561;55.654;37.592;2023-10-08T07:14:26;96148.44;;;3.31;88.81
35443;BME280;21561;55.654;37.592;2023-10-08T07:16:59;96145.69;;;3.35;88.48
35443;BME280;21561;55.654;37.592;2023-10-08T07:19:29;96146.44;;;3.39;88.16
35443;BME280;21561;55.654;37.592;2023-10-08T07:22:08;96170.91;;;3.48;87.00
35443;BME280;21561;55.654;37.592;2023-10-08T07:24:49;96180.53;;;3.41;86.87
35443;BME280;21561;55.654;37.592;2023-10-08T07:27:18;96140.53;;;3.37;87.62
35443;BME280;21561;55.654;37.592;2023-10-08T07:29:49;96190.00;;;3.39;87.32
35443;BME280;21561;55.654;37.592;2023-10-08T07:32:16;96190.91;;;3.38;86.63
35443;BME280;21561;55.654;37.592;2023-10-08T07:34:45;96163.50;;;3.40;86.61
35443;BME280;21561;55.654;37.592;2023-10-08T07:37:12;96149.69;;;3.44;86.82
35443;BME280;21561;55.654;37.592;2023-10-08T07:39:40;96264.97;;;3.46;86.35
35443;BME280;21561;55.654;37.592;2023-10-08T07:42:14;96199.38;;;3.40;86.29
35443;BME280;21561;55.654;37.592;2023-10-08T07:44:41;96157.38;;;3.44;84.77
35443;BME280;21561;55.654;37.592;2023-10-08T07:47:08;96159.94;;;3.44;84.55
35443;BME280;21561;55.654;37.592;2023-10-08T07:49:40;96169.06;;;3.51;84.53
35443;BME280;21561;55.654;37.592;2023-10-08T07:52:09;96185.91;;;3.58;83.46
35443;BME280;21561;55.654;37.592;2023-10-08T07:54:42;96196.19;;;3.58;82.57
35443;BME280;21561;55.654;37.592;2023-10-08T07:57:10;96166.31;;;3.57;83.10
35443;BME280;21561;55.654;37.592;2023-10-08T07:59:46;96153.28;;;3.63;83.26
35443;BME280;21561;55.654;37.592;2023-10-08T08:02:15;96166.81;;;3.67;82.19
35443;BME280;21561;55.654;37.592;2023-10-08T08:04:44;96167.97;;;3.58;82.44
35443;BME280;21561;55.654;37.592;2023-10-08T08:07:13;96172.22;;;3.59;83.11
35443;BME280;21561;55.654;37.592;2023-10-08T08:09:44;96162.66;;;3.65;82.80
35443;BME280;21561;55.654;37.592;2023-10-08T08:12:19;96214.13;;;3.58;82.25
35443;BME280;21561;55.654;37.592;2023-10-08T08:14:46;96187.81;;;3.53;82.72
35443;BME280;21561;55.654;37.592;2023-10-08T08:17:17;96191.38;;;3.49;83.05
35443;BME280;21561;55.654;37.592;2023-10-08T08:19:46;96186.34;;;3.46;82.94
35443;BME280;21561;55.654;37.592;2023-10-08T08:22:14;96200.63;;;3.53;82.55
35443;BME280;21561;55.654;37.592;2023-10-08T08:24:51;96204.72;;;3.59;83.08
35443;BME280;21561;55.654;37.592;2023-10-08T08:27:25;96200.38;;;3.61;81.54
35443;BME280;21561;55.654;37.592;2023-10-08T08:30:01;96213.38;;;3.55;81.90
35443;BME280;21561;55.654;37.592;2023-10-08T08:32:39;96196.06;;;3.61;81.65
35443;BME280;21561;55.654;37.592;2023-10-08T08:35:08;96207.78;;;3.69;80.96
35443;BME280;21561;55.654;37.592;2023-10-08T08:37:36;96210.31;;;3.70;80.81
35443;BME280;21561;55.654;37.592;2023-10-08T08:40:05;96185.50;;;3.71;80.87
35443;BME280;21561;55.654;37.592;2023-10-08T08:42:49;96223.88;;;3.74;80.84
35443;BME280;21561;55.654;37.592;2023-10-08T08:45:21;96187.72;;;3.80;80.85
35443;BME280;21561;55.654;37.592;2023-10-08T08:47:48;96208.38;;;3.77;80.60
35443;BME280;21561;55.654;37.592;2023-10-08T08:50:16;96197.88;;;3.83;80.43
35443;BME280;21561;55.654;37.592;2023-10-08T08:52:44;96216.41;;;3.91;79.34
35443;BME280;21561;55.654;37.592;2023-10-08T08:55:14;96216.63;;;3.85;78.96
35443;BME280;21561;55.654;37.592;2023-10-08T08:57:46;96265.31;;;3.87;79.49
35443;BME280;21561;55.654;37.592;2023-10-08T09:00:15;96226.78;;;3.88;79.38
35443;BME280;21561;55.654;37.592;2023-10-08T09:02:45;96247.50;;;3.82;78.48
35443;BME280;21561;55.654;37.592;2023-10-08T09:05:15;96244.88;;;3.83;79.36
35443;BME280;21561;55.654;37.592;2023-10-08T09:08:00;96225.03;;;3.89;79.72
35443;BME280;21561;55.654;37.592;2023-10-08T09:10:36;96192.22;;;3.98;79.41
35443;BME280;21561;55.654;37.592;2023-10-08T09:13:06;96215.00;;;3.82;79.91
35443;BME280;21561;55.654;37.592;2023-10-08T09:15:35;96248.69;;;3.73;78.69
35443;BME280;21561;55.654;37.592;2023-10-08T09:18:03;96235.03;;;3.71;78.79
35443;BME280;21561;55.654;37.592;2023-10-08T09:20:31;96225.53;;;3.75;78.54
35443;BME280;21561;55.654;37.592;2023-10-08T09:23:11;96254.22;;;3.86;77.83
35443;BME280;21561;55.654;37.592;2023-10-08T09:25:44;96223.63;;;3.80;78.26
35443;BME280;21561;55.654;37.592;2023-10-08T09:28:11;96253.44;;;3.84;77.86
35443;BME280;21561;55.654;37.592;2023-10-08T09:30:42;96282.31;;;3.89;78.07
35443;BME280;21561;55.654;37.592;2023-10-08T09:33:13;96261.22;;;3.81;78.69
35443;BME280;21561;55.654;37.592;2023-10-08T09:35:41;96266.69;;;3.72;79.53
35443;BME280;21561;55.654;37.592;2023-10-08T09:38:10;96266.69;;;3.72;79.16
35443;BME280;21561;55.654;37.592;2023-10-08T09:40:42;96316.50;;;3.65;80.19
35443;BME280;21561;55.654;37.592;2023-10-08T09:43:11;96238.84;;;3.61;80.33
35443;BME280;21561;55.654;37.592;2023-10-08T09:45:43;96237.09;;;3.61;81.03
35443;BME280;21561;55.654;37.592;2023-10-08T09:48:16;96252.44;;;3.63;80.53
35443;BME280;21561;55.654;37.592;2023-10-08T09:50:46;96302.75;;;3.66;80.14
35443;BME280;21561;55.654;37.592;2023-10-08T09:53:14;96253.94;;;3.69;79.07
35443;BME280;21561;55.654;37.592;2023-10-08T09:55:49;96289.34;;;3.59;80.35
35443;BME280;21561;55.654;37.592;2023-10-08T09:58:18;96255.44;;;3.49;82.15
35443;BME280;21561;55.654;37.592;2023-10-08T10:00:46;96306.13;;;3.41;83.55
35443;BME280;21561;55.654;37.592;2023-10-08T10:03:16;96324.25;;;3.35;83.53
35443;BME280;21561;55.654;37.592;2023-10-08T10:05:48;96259.59;;;3.27;84.26
35443;BME280;21561;55.654;37.592;2023-10-08T10:08:15;96288.13;;;3.16;85.58
35443;BME280;21561;55.654;37.592;2023-10-08T10:10:43;96261.59;;;3.18;86.34
35443;BME280;21561;55.654;37.592;2023-10-08T10:13:16;96289.75;;;3.18;85.57
35443;BME280;21561;55.654;37.592;2023-10-08T10:15:44;96248.38;;;3.04;87.57
35443;BME280;21561;55.654;37.592;2023-10-08T10:18:14;96250.69;;;3.12;89.58
35443;BME280;21561;55.654;37.592;2023-10-08T10:20:46;96309.56;;;3.13;87.75
35443;BME280;21561;55.654;37.592;2023-10-08T10:23:40;96282.47;;;3.06;88.88
35443;BME280;21561;55.654;37.592;2023-10-08T10:26:34;96254.25;;;3.08;90.58
35443;BME280;21561;55.654;37.592;2023-10-08T10:31:39;96270.44;;;3.08;92.18
35443;BME280;21561;55.654;37.592;2023-10-08T10:34:12;96260.28;;;3.05;92.98
35443;BME280;21561;55.654;37.592;2023-10-08T10:36:40;96275.84;;;2.99;94.76
35443;BME280;21561;55.654;37.592;2023-10-08T10:39:10;96265.81;;;2.93;97.15
35443;BME280;21561;55.654;37.592;2023-10-08T10:41:46;96278.19;;;2.78;98.18
35443;BME280;21561;55.654;37.592;2023-10-08T10:44:15;96273.44;;;2.66;99.68
35443;BME280;21561;55.654;37.592;2023-10-08T10:46:46;96281.16;;;2.64;98.71
35443;BME280;21561;55.654;37.592;2023-10-08T10:49:39;96287.41;;;2.54;99.73
35443;BME280;21561;55.654;37.592;2023-10-08T10:52:26;96309.69;;;2.51;100.00
35443;BME280;21561;55.654;37.592;2023-10-08T10:55:13;96284.19;;;2.47;100.00
35443;BME280;21561;55.654;37.592;2023-10-08T10:57:47;96291.06;;;2.45;100.00
35443;BME280;21561;55.654;37.592;2023-10-08T11:00:31;96304.13;;;2.36;100.00
35443;BME280;21561;55.654;37.592;2023-10-08T11:03:03;96279.34;;;2.38;100.00
35443;BME280;21561;55.654;37.592;2023-10-08T11:05:38;96279.44;;;2.35;100.00
35443;BME280;21561;55.654;37.592;2023-10-08T11:08:07;96301.88;;;2.25;100.00
35443;BME280;21561;55.654;37.592;2023-10-08T11:10:36;96279.81;;;2.21;100.00
35443;BME280;21561;55.654;37.592;2023-10-08T11:13:25;96305.63;;;2.14;100.00
35443;BME280;21561;55.654;37.592;2023-10-08T11:16:05;96279.38;;;2.07;100.00
35443;BME280;21561;55.654;37.592;2023-10-08T11:18:34;96284.91;;;1.90;100.00
35443;BME280;21561;55.654;37.592;2023-10-08T11:21:07;96292.84;;;1.81;100.00
35443;BME280;21561;55.654;37.592;2023-10-08T11:23:43;96300.75;;;1.71;100.00
35443;BME280;21561;55.654;37.592;2023-10-08T11:26:13;96292.13;;;1.76;100.00
35443;BME280;21561;55.654;37.592;2023-10-08T11:28:42;96324.13;;;1.56;100.00
35443;BME280;21561;55.654;37.592;2023-10-08T11:31:16;96308.97;;;1.50;100.00
35443;BME280;21561;55.654;37.592;2023-10-08T11:33:47;96329.69;;;1.38;100.00
35443;BME280;21561;55.654;37.592;2023-10-08T11:36:23;96326.56;;;1.26;100.00
35443;BME280;21561;55.654;37.592;2023-10-08T11:39:10;96339.41;;;1.22;100.00
35443;BME280;21561;55.654;37.592;2023-10-08T11:41:40;96287.50;;;1.21;100.00
35443;BME280;21561;55.654;37.592;2023-10-08T11:44:19;96306.25;;;1.20;100.00
35443;BME280;21561;55.654;37.592;2023-10-08T11:46:48;96301.06;;;1.23;100.00
35443;BME280;21561;55.654;37.592;2023-10-08T11:49:19;96294.16;;;1.28;100.00
35443;BME280;21561;55.654;37.592;2023-10-08T11:51:46;96300.94;;;1.29;100.00
35443;BME280;21561;55.654;37.592;2023-10-08T11:54:13;96292.47;;;1.27;100.00
35443;BME280;21561;55.654;37.592;2023-10-08T11:56:41;96292.47;;;1.27;100.00
35443;BME280;21561;55.654;37.592;2023-10-08T11:59:09;96294.19;;;1.27;100.00
35443;BME280;21561;55.654;37.592;2023-10-08T12:01:36;96292.44;;;1.29;100.00
35443;BME280;21561;55.654;37.592;2023-10-08T12:04:05;96317.94;;;1.30;100.00
35443;BME280;21561;55.654;37.592;2023-10-08T12:06:40;96302.66;;;1.27;100.00
35443;BME280;21561;55.654;37.592;2023-10-08T12:09:16;96292.44;;;1.29;100.00
35443;BME280;21561;55.654;37.592;2023-10-08T12:11:43;96287.28;;;1.30;100.00
35443;BME280;21561;55.654;37.592;2023-10-08T12:14:10;96297.50;;;1.30;100.00
35443;BME280;21561;55.654;37.592;2023-10-08T12:16:38;96297.50;;;1.30;100.00
35443;BME280;21561;55.654;37.592;2023-10-08T12:19:07;96317.88;;;1.33;100.00
35443;BME280;21561;55.654;37.592;2023-10-08T12:21:46;96290.63;;;1.32;100.00
35443;BME280;21561;55.654;37.592;2023-10-08T12:24:14;96301.00;;;1.26;100.00
35443;BME280;21561;55.654;37.592;2023-10-08T12:26:41;96304.38;;;1.28;100.00
35443;BME280;21561;55.654;37.592;2023-10-08T12:29:13;96293.38;;;1.25;100.00
35443;BME280;21561;55.654;37.592;2023-10-08T12:31:48;96311.22;;;1.26;100.00
35443;BME280;21561;55.654;37.592;2023-10-08T12:34:15;96303.53;;;1.28;100.00
35443;BME280;21561;55.654;37.592;2023-10-08T12:36:43;96298.47;;;1.26;100.00
35443;BME280;21561;55.654;37.592;2023-10-08T12:39:12;96297.56;;;1.27;100.00
35443;BME280;21561;55.654;37.592;2023-10-08T12:41:44;96295.84;;;1.29;100.00
35443;BME280;21561;55.654;37.592;2023-10-08T12:44:11;96296.72;;;1.27;100.00
35443;BME280;21561;55.654;37.592;2023-10-08T12:46:39;96316.34;;;1.26;100.00
35443;BME280;21561;55.654;37.592;2023-10-08T12:49:10;96300.13;;;1.27;100.00
35443;BME280;21561;55.654;37.592;2023-10-08T12:51:37;96306.94;;;1.27;100.00
35443;BME280;21561;55.654;37.592;2023-10-08T12:54:09;96304.44;;;1.25;100.00
35443;BME280;21561;55.654;37.592;2023-10-08T12:56:48;96283.22;;;1.22;100.00
35443;BME280;21561;55.654;37.592;2023-10-08T12:59:16;96305.28;;;1.26;100.00
35443;BME280;21561;55.654;37.592;2023-10-08T13:01:51;96301.06;;;1.23;100.00
35443;BME280;21561;55.654;37.592;2023-10-08T13:04:21;96302.88;;;1.20;100.00
35443;BME280;21561;55.654;37.592;2023-10-08T13:06:56;96310.56;;;1.18;100.00
35443;BME280;21561;55.654;37.592;2023-10-08T13:09:30;96348.06;;;1.16;100.00
35443;BME280;21561;55.654;37.592;2023-10-08T13:12:04;96331.13;;;1.13;100.00
35443;BME280;21561;55.654;37.592;2023-10-08T13:14:31;96295.47;;;1.07;100.00
35443;BME280;21561;55.654;37.592;2023-10-08T13:17:02;96325.28;;;1.07;100.00
35443;BME280;21561;55.654;37.592;2023-10-08T13:19:29;96312.56;;;1.05;100.00
35443;BME280;21561;55.654;37.592;2023-10-08T13:22:01;96320.28;;;1.02;100.00
35443;BME280;21561;55.654;37.592;2023-10-08T13:24:28;96309.28;;;0.99;100.00
35443;BME280;21561;55.654;37.592;2023-10-08T13:26:55;96311.97;;;0.94;100.00
35443;BME280;21561;55.654;37.592;2023-10-08T13:29:25;96315.34;;;0.94;100.00
35443;BME280;21561;55.654;37.592;2023-10-08T13:32:00;96311.19;;;0.90;100.00